createdAt,value
2022-10-18T00:01:45.610Z,101862.88
2022-10-18T00:04:13.668Z,101855.34
2022-10-18T00:06:43.540Z,101855.75
2022-10-18T00:09:12.366Z,101865.84
2022-10-18T00:11:40.630Z,101862.34
2022-10-18T00:14:08.664Z,101875.78
2022-10-18T00:16:36.617Z,101869.75
2022-10-18T00:19:06.009Z,101873.50
2022-10-18T00:21:34.088Z,101871.50
2022-10-18T00:24:02.465Z,101873.88
2022-10-18T00:26:31.994Z,101882.28
2022-10-18T00:29:01.958Z,101882.38
2022-10-18T00:31:32.231Z,101883.13
2022-10-18T00:34:01.301Z,101880.94
2022-10-18T00:36:32.518Z,101886.72
2022-10-18T00:39:00.977Z,101885.53
2022-10-18T00:41:30.493Z,101886.63
2022-10-18T00:44:00.717Z,101889.63
2022-10-18T00:46:30.733Z,101883.13
2022-10-18T00:49:01.341Z,101886.44
2022-10-18T00:51:34.570Z,101878.56
2022-10-18T00:54:02.590Z,101889.97
2022-10-18T00:56:30.881Z,101883.19
2022-10-18T00:58:58.838Z,101885.72
2022-10-18T01:01:28.459Z,101873.25
2022-10-18T01:03:57.728Z,101884.88
2022-10-18T01:06:28.183Z,101885.25
2022-10-18T01:09:16.221Z,101883.47
2022-10-18T01:12:00.296Z,101895.16
2022-10-18T01:14:44.807Z,101891.13
2022-10-18T01:17:16.931Z,101906.22
2022-10-18T01:20:16.559Z,101907.75
2022-10-18T01:22:46.247Z,101898.88
2022-10-18T01:25:27.674Z,101906.22
2022-10-18T01:27:59.618Z,101894.34
2022-10-18T01:30:44.737Z,101889.56
2022-10-18T01:33:18.551Z,101886.28
2022-10-18T01:35:50.269Z,101880.19
2022-10-18T01:38:20.297Z,101884.84
2022-10-18T01:40:50.397Z,101871.25
2022-10-18T01:43:18.717Z,101882.16
2022-10-18T01:45:48.717Z,101876.16
2022-10-18T01:48:17.797Z,101881.31
2022-10-18T01:50:45.754Z,101882.84
2022-10-18T01:53:24.538Z,101891.69
2022-10-18T01:55:58.038Z,101895.19
2022-10-18T01:58:30.360Z,101898.78
2022-10-18T02:01:05.257Z,101891.66
2022-10-18T02:03:34.623Z,101894.59
2022-10-18T02:06:07.269Z,101883.38
2022-10-18T02:08:38.372Z,101884.00
2022-10-18T02:11:08.073Z,101874.75
2022-10-18T02:13:40.292Z,101886.56
2022-10-18T02:16:13.750Z,101875.41
2022-10-18T02:18:46.088Z,101886.41
2022-10-18T02:21:17.054Z,101893.59
2022-10-18T02:23:45.787Z,101891.44
2022-10-18T02:26:14.851Z,101885.28
2022-10-18T02:28:42.976Z,101888.25
2022-10-18T02:31:16.811Z,101900.22
2022-10-18T02:33:48.307Z,101898.44
2022-10-18T02:36:20.217Z,101893.56
2022-10-18T02:38:48.762Z,101887.06
2022-10-18T02:41:24.251Z,101892.47
2022-10-18T02:43:52.128Z,101910.06
2022-10-18T02:46:21.597Z,101909.66
2022-10-18T02:48:50.341Z,101911.75
2022-10-18T02:51:18.943Z,101911.78
2022-10-18T02:53:46.944Z,101911.19
2022-10-18T02:56:14.842Z,101915.00
2022-10-18T02:58:42.648Z,101919.31
2022-10-18T03:01:10.935Z,101912.03
2022-10-18T03:03:40.571Z,101923.41
2022-10-18T03:06:08.715Z,101915.38
2022-10-18T03:08:37.188Z,101910.22
2022-10-18T03:11:06.175Z,101923.91
2022-10-18T03:13:35.046Z,101926.84
2022-10-18T03:16:03.536Z,101936.91
2022-10-18T03:18:31.612Z,101934.69
2022-10-18T03:21:01.039Z,101944.22
2022-10-18T03:23:28.959Z,101938.59
2022-10-18T03:25:56.829Z,101931.59
2022-10-18T03:28:25.105Z,101920.53
2022-10-18T03:30:53.182Z,101926.75
2022-10-18T03:33:21.264Z,101919.03
2022-10-18T03:35:50.119Z,101932.59
2022-10-18T03:38:20.687Z,101926.16
2022-10-18T03:40:49.011Z,101913.41
2022-10-18T03:43:16.966Z,101913.28
2022-10-18T03:45:44.955Z,101912.91
2022-10-18T03:48:13.482Z,101925.41
2022-10-18T03:50:41.571Z,101925.38
2022-10-18T03:53:10.109Z,101928.75
2022-10-18T03:55:39.950Z,101928.00
2022-10-18T03:58:08.365Z,101931.91
2022-10-18T04:00:36.582Z,101929.94
2022-10-18T04:03:04.735Z,101920.91
2022-10-18T04:05:32.768Z,101925.59
2022-10-18T04:08:00.825Z,101942.88
2022-10-18T04:10:28.877Z,101933.56
2022-10-18T04:12:58.601Z,101937.00
2022-10-18T04:15:26.597Z,101923.75
2022-10-18T04:17:54.666Z,101919.81
2022-10-18T04:20:22.949Z,101931.16
2022-10-18T04:22:51.666Z,101926.75
2022-10-18T04:25:19.777Z,101932.94
2022-10-18T04:27:47.668Z,101944.38
2022-10-18T04:30:17.557Z,101931.34
2022-10-18T04:32:45.589Z,101934.97
2022-10-18T04:35:13.612Z,101912.56
2022-10-18T04:37:43.413Z,101918.56
2022-10-18T04:40:12.289Z,101920.41
2022-10-18T04:42:40.737Z,101935.88
2022-10-18T04:45:09.787Z,101944.25
2022-10-18T04:47:39.754Z,101929.28
2022-10-18T04:50:12.506Z,101932.00
2022-10-18T04:52:40.744Z,101924.03
2022-10-18T04:55:11.229Z,101921.13
2022-10-18T04:57:39.219Z,101926.34
2022-10-18T05:00:08.350Z,101927.81
2022-10-18T05:02:38.543Z,101938.34
2022-10-18T05:05:11.730Z,101932.22
2022-10-18T05:07:42.266Z,101913.84
2022-10-18T05:10:12.111Z,101912.91
2022-10-18T05:12:40.250Z,101912.84
2022-10-18T05:15:08.773Z,101898.44
2022-10-18T05:17:37.141Z,101888.69
2022-10-18T05:20:09.844Z,101893.13
2022-10-18T05:22:37.856Z,101922.41
2022-10-18T05:25:06.342Z,101918.47
2022-10-18T05:27:34.484Z,101915.38
2022-10-18T05:30:05.360Z,101923.19
2022-10-18T05:32:34.203Z,101914.41
2022-10-18T05:35:03.575Z,101910.16
2022-10-18T05:37:33.560Z,101905.31
2022-10-18T05:40:01.958Z,101909.88
2022-10-18T05:42:33.014Z,101914.53
2022-10-18T05:45:01.886Z,101918.91
2022-10-18T05:47:29.948Z,101917.78
2022-10-18T05:49:58.764Z,101917.78
2022-10-18T05:52:27.002Z,101932.88
2022-10-18T05:54:57.128Z,101935.53
2022-10-18T05:57:25.238Z,101925.13
2022-10-18T05:59:53.623Z,101944.31
2022-10-18T06:02:21.748Z,101922.53
2022-10-18T06:04:50.154Z,101924.59
2022-10-18T06:07:18.212Z,101924.75
2022-10-18T06:09:46.479Z,101917.13
2022-10-18T06:12:15.888Z,101912.16
2022-10-18T06:14:45.322Z,101916.69
2022-10-18T06:17:13.773Z,101918.06
2022-10-18T06:19:44.852Z,101910.97
2022-10-18T06:22:14.757Z,101899.84
2022-10-18T06:24:45.957Z,101894.75
2022-10-18T06:27:15.703Z,101889.81
2022-10-18T06:32:37.443Z,101923.91
2022-10-18T06:35:06.222Z,101917.41
2022-10-18T06:37:36.474Z,101903.81
2022-10-18T06:40:05.277Z,101902.88
2022-10-18T06:42:35.662Z,101916.50
2022-10-18T06:45:03.707Z,101896.25
2022-10-18T06:47:31.781Z,101907.50
2022-10-18T06:50:00.099Z,101904.63
2022-10-18T06:52:29.155Z,101919.88
2022-10-18T06:54:57.660Z,101921.56
2022-10-18T06:57:26.092Z,101916.63
2022-10-18T06:59:56.048Z,101901.19
2022-10-18T07:02:24.101Z,101921.78
2022-10-18T07:04:52.442Z,101925.75
2022-10-18T07:07:21.289Z,101917.91
2022-10-18T07:09:51.995Z,101921.38
2022-10-18T07:12:20.075Z,101936.75
2022-10-18T07:14:51.078Z,101932.97
2022-10-18T07:17:20.963Z,101933.88
2022-10-18T07:19:54.778Z,101948.34
2022-10-18T07:22:30.059Z,101955.41
2022-10-18T07:24:58.931Z,101949.25
2022-10-18T07:27:27.493Z,101962.53
2022-10-18T07:30:01.398Z,101962.84
2022-10-18T07:32:38.459Z,101967.88
2022-10-18T07:35:07.717Z,101964.75
2022-10-18T07:37:37.675Z,101984.22
2022-10-18T07:40:12.603Z,101977.91
2022-10-18T07:42:41.399Z,101985.84
2022-10-18T07:45:11.963Z,101991.66
2022-10-18T07:47:42.574Z,101983.41
2022-10-18T07:50:11.725Z,101984.56
2022-10-18T07:52:41.239Z,101985.66
2022-10-18T07:55:09.902Z,101988.63
2022-10-18T07:57:40.111Z,101982.25
2022-10-18T08:00:09.563Z,101970.63
2022-10-18T08:02:41.563Z,101978.38
2022-10-18T08:05:11.230Z,101972.81
2022-10-18T08:07:39.819Z,101976.09
2022-10-18T08:10:08.581Z,101970.00
2022-10-18T08:12:37.630Z,101969.97
2022-10-18T08:15:06.701Z,101977.22
2022-10-18T08:17:35.715Z,101960.38
2022-10-18T08:20:12.371Z,101958.09
2022-10-18T08:22:59.750Z,101962.59
2022-10-18T08:25:29.360Z,101967.97
2022-10-18T08:27:57.780Z,101970.41
2022-10-18T08:30:26.350Z,101964.44
2022-10-18T08:32:54.743Z,101954.75
2022-10-18T08:35:26.297Z,101962.78
2022-10-18T08:37:54.531Z,101973.44
2022-10-18T08:40:24.270Z,101972.72
2022-10-18T08:43:00.782Z,101972.56
2022-10-18T08:45:42.094Z,101968.09
2022-10-18T08:48:23.613Z,101973.41
2022-10-18T08:50:55.868Z,101971.63
2022-10-18T08:53:29.311Z,101968.44
2022-10-18T08:56:02.885Z,101972.91
2022-10-18T08:58:33.620Z,101967.88
2022-10-18T09:01:12.135Z,101971.50
2022-10-18T09:03:53.756Z,101960.69
2022-10-18T09:06:27.086Z,101955.44
2022-10-18T09:09:05.263Z,101961.22
2022-10-18T09:11:45.344Z,101960.13
2022-10-18T09:14:34.665Z,101964.78
2022-10-18T09:17:14.994Z,101970.81
2022-10-18T09:19:55.864Z,101978.94
2022-10-18T09:22:31.292Z,101955.59
2022-10-18T09:25:08.951Z,101973.38
2022-10-18T09:27:43.069Z,101959.13
2022-10-18T09:30:18.587Z,101975.63
2022-10-18T09:32:49.978Z,101961.16
2022-10-18T09:35:21.867Z,101972.91
2022-10-18T09:37:52.829Z,101965.31
2022-10-18T09:40:24.691Z,101955.16
2022-10-18T09:42:58.911Z,101953.38
2022-10-18T09:45:34.399Z,101964.56
2022-10-18T09:48:08.658Z,101966.09
2022-10-18T09:50:43.379Z,101972.09
2022-10-18T09:53:23.405Z,101970.75
2022-10-18T09:56:02.204Z,101976.69
2022-10-18T09:58:45.034Z,101966.09
2022-10-18T10:01:15.871Z,101971.91
2022-10-18T10:03:44.727Z,101966.00
2022-10-18T10:06:34.691Z,101975.44
2022-10-18T10:09:09.264Z,101972.34
2022-10-18T10:11:40.336Z,101975.47
2022-10-18T10:16:49.180Z,101976.31
2022-10-18T10:19:22.687Z,101977.03
2022-10-18T10:21:55.082Z,101982.44
2022-10-18T10:24:34.866Z,101961.38
2022-10-18T10:27:11.664Z,101963.81
2022-10-18T10:29:58.820Z,101968.44
2022-10-18T10:32:34.634Z,101966.06
2022-10-18T10:35:03.295Z,101959.03
2022-10-18T10:37:36.637Z,101958.63
2022-10-18T10:40:35.061Z,101938.34
2022-10-18T10:43:33.055Z,101946.00
2022-10-18T10:46:07.644Z,101956.09
2022-10-18T10:49:04.108Z,101943.56
2022-10-18T10:51:50.567Z,101931.53
2022-10-18T10:54:28.724Z,101938.06
2022-10-18T10:57:00.964Z,101941.00
2022-10-18T10:59:34.870Z,101923.03
2022-10-18T11:02:22.920Z,101930.78
2022-10-18T11:04:52.278Z,101913.38
2022-10-18T11:07:25.243Z,101910.03
2022-10-18T11:10:01.256Z,101923.66
2022-10-18T11:12:36.138Z,101921.34
2022-10-18T11:15:24.718Z,101913.97
2022-10-18T11:18:03.164Z,101916.44
2022-10-18T11:20:36.335Z,101919.00
2022-10-18T11:23:07.732Z,101914.59
2022-10-18T11:25:53.488Z,101908.97
2022-10-18T11:28:45.099Z,101913.84
2022-10-18T11:31:17.866Z,101928.63
2022-10-18T11:34:14.838Z,101933.44
2022-10-18T11:37:15.866Z,101930.94
2022-10-18T11:40:02.111Z,101917.44
2022-10-18T11:42:40.001Z,101907.19
2022-10-18T11:45:32.439Z,101898.94
2022-10-18T11:48:06.664Z,101911.38
2022-10-18T11:50:41.360Z,101909.91
2022-10-18T11:53:15.823Z,101904.50
2022-10-18T11:55:52.088Z,101914.72
2022-10-18T11:58:31.190Z,101905.03
2022-10-18T12:01:07.163Z,101906.75
2022-10-18T12:03:41.475Z,101908.38
2022-10-18T12:06:15.263Z,101896.22
2022-10-18T12:08:46.028Z,101905.06
2022-10-18T12:11:16.839Z,101910.00
2022-10-18T12:13:49.057Z,101900.56
2022-10-18T12:16:45.564Z,101894.09
2022-10-18T12:19:16.484Z,101893.41
2022-10-18T12:21:45.652Z,101890.84
2022-10-18T12:24:22.654Z,101909.03
2022-10-18T12:26:53.871Z,101893.41
2022-10-18T12:29:29.325Z,101888.69
2022-10-18T12:32:10.619Z,101883.00
2022-10-18T12:34:57.247Z,101897.56
2022-10-18T12:37:59.480Z,101896.34
2022-10-18T12:40:35.455Z,101898.53
2022-10-18T12:43:12.918Z,101878.78
2022-10-18T12:45:50.898Z,101885.69
2022-10-18T12:48:31.623Z,101880.88
2022-10-18T12:51:02.983Z,101870.97
2022-10-18T12:53:37.211Z,101874.91
2022-10-18T12:56:42.421Z,101881.91
2022-10-18T12:59:54.820Z,101871.84
2022-10-18T13:02:32.772Z,101882.59
2022-10-18T13:05:52.194Z,101886.16
2022-10-18T13:08:48.504Z,101886.09
2022-10-18T13:11:40.627Z,101875.97
2022-10-18T13:14:19.413Z,101886.41
2022-10-18T13:16:55.523Z,101875.44
2022-10-18T13:19:32.160Z,101865.66
2022-10-18T13:22:20.066Z,101867.22
2022-10-18T13:25:01.744Z,101874.66
2022-10-18T13:27:39.498Z,101882.78
2022-10-18T13:30:37.565Z,101883.28
2022-10-18T13:33:19.109Z,101888.44
2022-10-18T13:36:10.416Z,101880.16
2022-10-18T13:39:02.209Z,101872.59
2022-10-18T13:41:35.347Z,101895.13
2022-10-18T13:44:29.188Z,101888.84
2022-10-18T13:47:12.521Z,101878.13
2022-10-18T13:50:28.208Z,101880.56
2022-10-18T13:53:10.647Z,101879.22
2022-10-18T13:55:56.286Z,101879.47
2022-10-18T13:58:32.138Z,101876.88
2022-10-18T14:01:11.541Z,101882.34
2022-10-18T14:04:14.499Z,101870.78
2022-10-18T14:06:45.110Z,101875.06
2022-10-18T14:09:48.668Z,101868.34
2022-10-18T14:12:20.892Z,101890.06
2022-10-18T14:15:04.214Z,101891.00
2022-10-18T14:17:43.335Z,101901.16
2022-10-18T14:20:28.651Z,101897.53
2022-10-18T14:23:09.469Z,101887.63
2022-10-18T14:25:42.177Z,101887.28
2022-10-18T14:28:54.940Z,101898.16
2022-10-18T14:31:21.208Z,101909.19
2022-10-18T14:33:58.081Z,101919.41
2022-10-18T14:36:52.306Z,101918.16
2022-10-18T14:39:28.361Z,101911.13
2022-10-18T14:41:59.603Z,101915.28
2022-10-18T14:44:35.256Z,101915.38
2022-10-18T14:47:28.319Z,101899.84
2022-10-18T14:50:11.972Z,101922.22
2022-10-18T14:52:44.422Z,101904.81
2022-10-18T14:55:19.636Z,101913.31
2022-10-18T14:57:49.559Z,101920.81
2022-10-18T15:00:38.829Z,101916.56
2022-10-18T15:03:08.879Z,101901.53
2022-10-18T15:05:37.768Z,101911.28
2022-10-18T15:08:12.472Z,101904.84
2022-10-18T15:10:41.212Z,101914.22
2022-10-18T15:13:18.246Z,101905.25
2022-10-18T15:15:50.210Z,101901.16
2022-10-18T15:18:22.480Z,101907.13
2022-10-18T15:21:10.024Z,101911.63
2022-10-18T15:23:39.208Z,101905.31
2022-10-18T15:26:15.189Z,101900.69
2022-10-18T15:28:52.240Z,101920.25
2022-10-18T15:31:38.931Z,101920.22
2022-10-18T15:34:26.557Z,101920.25
2022-10-18T15:37:20.562Z,101917.78
2022-10-18T15:40:33.424Z,101908.78
2022-10-18T15:43:10.270Z,101902.47
2022-10-18T15:45:50.944Z,101907.06
2022-10-18T15:48:24.246Z,101922.16
2022-10-18T15:50:53.245Z,101916.66
2022-10-18T15:53:27.033Z,101918.22
2022-10-18T15:55:56.177Z,101925.81
2022-10-18T15:58:25.698Z,101922.16
2022-10-18T16:00:54.950Z,101930.31
2022-10-18T16:03:24.954Z,101930.97
2022-10-18T16:05:54.665Z,101933.22
2022-10-18T16:08:24.711Z,101929.19
2022-10-18T16:10:52.860Z,101932.94
2022-10-18T16:13:21.069Z,101929.81
2022-10-18T16:15:49.528Z,101923.69
2022-10-18T16:18:19.269Z,101913.84
2022-10-18T16:20:49.232Z,101921.13
2022-10-18T16:23:19.013Z,101927.47
2022-10-18T16:25:47.234Z,101942.25
2022-10-18T16:28:16.844Z,101929.31
2022-10-18T16:30:47.942Z,101939.38
2022-10-18T16:33:19.222Z,101934.66
2022-10-18T16:35:50.838Z,101941.00
2022-10-18T16:38:25.403Z,101946.03
2022-10-18T16:40:53.424Z,101948.91
2022-10-18T16:43:21.341Z,101946.03
2022-10-18T16:45:49.420Z,101953.50
2022-10-18T16:48:17.747Z,101957.41
2022-10-18T16:50:47.245Z,101949.81
2022-10-18T16:53:16.879Z,101958.94
2022-10-18T16:55:44.886Z,101955.59
2022-10-18T16:58:17.782Z,101955.09
2022-10-18T17:00:46.258Z,101950.28
2022-10-18T17:03:14.366Z,101948.69
2022-10-18T17:05:42.507Z,101953.38
2022-10-18T17:08:18.859Z,101957.44
2022-10-18T17:10:47.414Z,101964.38
2022-10-18T17:13:15.306Z,101963.94
2022-10-18T17:15:43.169Z,101956.94
2022-10-18T17:18:15.117Z,101959.06
2022-10-18T17:20:43.163Z,101956.72
2022-10-18T17:23:11.291Z,101955.94
2022-10-18T17:25:57.416Z,101962.00
2022-10-18T17:28:31.564Z,101959.41
2022-10-18T17:30:59.353Z,101960.97
2022-10-18T17:33:27.064Z,101962.00
2022-10-18T17:35:54.786Z,101973.41
2022-10-18T17:38:22.509Z,101957.50
2022-10-18T17:40:52.738Z,101956.38
2022-10-18T17:43:20.612Z,101962.81
2022-10-18T17:45:49.217Z,101959.13
2022-10-18T17:48:17.995Z,101970.31
2022-10-18T17:50:45.976Z,101968.88
2022-10-18T17:53:13.918Z,101976.16
2022-10-18T17:55:41.649Z,101974.06
2022-10-18T17:58:10.808Z,101975.88
2022-10-18T18:00:38.513Z,101977.06
2022-10-18T18:03:06.362Z,101979.78
2022-10-18T18:05:35.474Z,101978.66
2022-10-18T18:08:04.275Z,101968.06
2022-10-18T18:10:33.654Z,101966.75
2022-10-18T18:13:02.192Z,101976.06
2022-10-18T18:15:31.217Z,101975.53
2022-10-18T18:17:59.024Z,101974.72
2022-10-18T18:20:27.421Z,101985.06
2022-10-18T18:22:55.358Z,101985.50
2022-10-18T18:25:23.094Z,101981.13
2022-10-18T18:27:51.038Z,101986.56
2022-10-18T18:30:18.853Z,101984.28
2022-10-18T18:32:47.911Z,101986.56
2022-10-18T18:35:15.788Z,101993.75
2022-10-18T18:37:43.541Z,101986.88
2022-10-18T18:40:11.778Z,101998.88
2022-10-18T18:42:39.491Z,101988.81
2022-10-18T18:45:07.970Z,101993.31
2022-10-18T18:47:36.306Z,102002.47
2022-10-18T18:50:05.788Z,101996.47
2022-10-18T18:52:33.842Z,101995.19
2022-10-18T18:55:01.740Z,101997.91
2022-10-18T18:57:29.485Z,101998.53
2022-10-18T18:59:57.466Z,101994.03
2022-10-18T19:02:25.233Z,101992.38
2022-10-18T19:04:53.027Z,102000.34
2022-10-18T19:07:22.114Z,101987.88
2022-10-18T19:09:50.859Z,101997.69
2022-10-18T19:12:20.622Z,101992.69
2022-10-18T19:14:49.187Z,101992.94
2022-10-18T19:17:17.031Z,101993.97
2022-10-18T19:19:44.724Z,101999.53
2022-10-18T19:22:12.401Z,101993.47
2022-10-18T19:24:41.516Z,101998.00
2022-10-18T19:27:12.361Z,101997.72
2022-10-18T19:29:41.552Z,102009.97
2022-10-18T19:32:12.075Z,102010.38
2022-10-18T19:34:40.417Z,102006.88
2022-10-18T19:37:09.375Z,102010.16
2022-10-18T19:39:37.579Z,102013.53
2022-10-18T19:42:14.603Z,102016.19
2022-10-18T19:44:44.783Z,102007.94
2022-10-18T19:47:14.045Z,102017.00
2022-10-18T19:49:42.627Z,102018.53
2022-10-18T19:52:13.499Z,102021.19
2022-10-18T19:54:41.237Z,102013.81
2022-10-18T19:57:10.219Z,102021.06
2022-10-18T19:59:38.478Z,102022.22
2022-10-18T20:02:06.246Z,102028.94
2022-10-18T20:04:35.024Z,102028.31
2022-10-18T20:07:03.521Z,102037.44
2022-10-18T20:09:31.272Z,102039.25
2022-10-18T20:11:59.598Z,102037.72
2022-10-18T20:14:28.671Z,102035.09
2022-10-18T20:16:56.400Z,102038.56
2022-10-18T20:19:24.152Z,102046.31
2022-10-18T20:21:51.850Z,102039.13
2022-10-18T20:24:19.519Z,102049.38
2022-10-18T20:26:47.266Z,102044.09
2022-10-18T20:29:15.123Z,102055.94
2022-10-18T20:31:44.240Z,102055.53
2022-10-18T20:34:12.968Z,102049.66
2022-10-18T20:36:41.318Z,102045.63
2022-10-18T20:39:09.041Z,102054.97
2022-10-18T20:41:38.928Z,102053.06
2022-10-18T20:44:13.946Z,102050.88
2022-10-18T20:46:42.148Z,102057.28
2022-10-18T20:49:14.547Z,102060.09
2022-10-18T20:51:42.765Z,102061.66
2022-10-18T20:54:11.388Z,102059.25
2022-10-18T20:56:39.852Z,102058.72
2022-10-18T20:59:09.737Z,102052.72
2022-10-18T21:01:38.956Z,102059.47
2022-10-18T21:04:08.119Z,102049.69
2022-10-18T21:06:40.162Z,102055.72
2022-10-18T21:09:09.677Z,102054.06
2022-10-18T21:11:39.216Z,102053.13
2022-10-18T21:14:08.117Z,102043.59
2022-10-18T21:16:36.942Z,102044.81
2022-10-18T21:19:05.312Z,102030.56
2022-10-18T21:21:33.476Z,102040.72
2022-10-18T21:24:06.887Z,102041.53
2022-10-18T21:26:36.190Z,102043.81
2022-10-18T21:29:05.089Z,102050.41
2022-10-18T21:31:34.852Z,102052.84
2022-10-18T21:34:04.022Z,102048.06
2022-10-18T21:36:33.383Z,102042.66
2022-10-18T21:39:03.234Z,102039.38
2022-10-18T21:41:32.100Z,102042.16
2022-10-18T21:44:00.078Z,102041.00
2022-10-18T21:46:28.658Z,102035.19
2022-10-18T21:48:57.808Z,102041.94
2022-10-18T21:51:26.786Z,102027.78
2022-10-18T21:53:56.161Z,102035.13
2022-10-18T21:56:26.967Z,102034.00
2022-10-18T21:58:55.099Z,102043.66
2022-10-18T22:01:24.983Z,102042.34
2022-10-18T22:03:54.403Z,102042.16
2022-10-18T22:06:22.615Z,102046.47
2022-10-18T22:08:51.893Z,102051.75
2022-10-18T22:11:21.555Z,102046.41
2022-10-18T22:13:50.827Z,102046.25
2022-10-18T22:16:18.719Z,102044.38
2022-10-18T22:18:47.866Z,102040.44
2022-10-18T22:21:17.958Z,102041.81
2022-10-18T22:23:47.439Z,102024.91
2022-10-18T22:26:16.778Z,102030.22
2022-10-18T22:28:45.705Z,102028.25
2022-10-18T22:31:19.849Z,102026.31
2022-10-18T22:33:49.164Z,102028.47
2022-10-18T22:36:16.858Z,102021.09
2022-10-18T22:38:44.603Z,102027.53
2022-10-18T22:41:13.215Z,102014.63
2022-10-18T22:43:41.307Z,102018.88
2022-10-18T22:46:10.544Z,102022.94
2022-10-18T22:48:40.218Z,102020.97
2022-10-18T22:51:08.355Z,102015.28
2022-10-18T22:53:37.111Z,102018.50
2022-10-18T22:56:05.704Z,102005.19
2022-10-18T22:58:33.857Z,102018.69
2022-10-18T23:01:06.253Z,102009.53
2022-10-18T23:03:34.115Z,102011.09
2022-10-18T23:06:03.815Z,102010.69
2022-10-18T23:08:31.780Z,102009.22
2022-10-18T23:11:00.716Z,102009.56
2022-10-18T23:13:29.073Z,102011.97
2022-10-18T23:16:04.574Z,102010.31
2022-10-18T23:18:32.942Z,102009.41
2022-10-18T23:21:06.153Z,102008.66
2022-10-18T23:23:35.566Z,102012.69
2022-10-18T23:26:05.018Z,102012.91
2022-10-18T23:28:34.876Z,102012.06
2022-10-18T23:31:07.666Z,102016.16
2022-10-18T23:33:35.665Z,102007.00
2022-10-18T23:36:04.925Z,102012.59
2022-10-18T23:38:33.326Z,102010.63
2022-10-18T23:41:01.415Z,102012.91
2022-10-18T23:43:29.190Z,102011.56
2022-10-18T23:45:56.939Z,102015.22
2022-10-18T23:48:24.848Z,102008.84
2022-10-18T23:50:52.886Z,102007.06
2022-10-18T23:53:22.355Z,102010.72
2022-10-18T23:55:53.438Z,102010.16
2022-10-18T23:58:21.361Z,102010.53
